In Rescue
 
Open Full Screen Window  High Contrast Mode
November 29, 2022 8:58 AM EST
Weather Information
Wind Direction
  ---
Wind Speed
  00 kt (0 mph)
Wind Gust
  00 kt (0 mph)
Altimeter
30.28 in
Visibility
10 SM
Temperature
00° C
32° F
Dewpoint
-05° C
23° F
Humidity
69%
Sky Condition
Overcast @ 3,100 ft
VFR

METAR KFSO 291358Z AUTO 00000KT 10SM OVC031 00/M05 A3028 RMK AO2 T00001051

FAA Disclaimer: The data displayed is for advisory purposes only and is not to be used for flight planning or operations.